createdAt,value
2023-01-15T00:02:23.206Z,100140.22
2023-01-15T00:04:51.769Z,100132.19
2023-01-15T00:07:19.149Z,100127.28
2023-01-15T00:09:46.523Z,100125.63
2023-01-15T00:12:14.120Z,100125.50
2023-01-15T00:14:41.467Z,100118.34
2023-01-15T00:17:08.911Z,100129.56
2023-01-15T00:19:36.524Z,100129.81
2023-01-15T00:22:03.928Z,100123.13
2023-01-15T00:24:49.820Z,100128.37
2023-01-15T00:27:36.421Z,100122.28
2023-01-15T00:30:03.942Z,100123.22
2023-01-15T00:32:31.490Z,100118.16
2023-01-15T00:34:59.012Z,100113.78
2023-01-15T00:37:26.911Z,100112.09
2023-01-15T00:39:54.524Z,100110.69
2023-01-15T00:42:21.890Z,100117.03
2023-01-15T00:44:49.278Z,100100.66
2023-01-15T00:47:16.999Z,100115.34
2023-01-15T00:49:44.380Z,100116.75
2023-01-15T00:52:11.906Z,100114.81
2023-01-15T00:54:39.587Z,100109.03
2023-01-15T00:57:06.947Z,100112.28
2023-01-15T00:59:34.485Z,100105.72
2023-01-15T01:02:02.270Z,100102.25
2023-01-15T01:04:29.733Z,100102.69
2023-01-15T01:06:57.371Z,100103.66
2023-01-15T01:09:24.981Z,100091.16
2023-01-15T01:11:52.331Z,100095.72
2023-01-15T01:14:19.758Z,100086.69
2023-01-15T01:16:47.402Z,100093.66
2023-01-15T01:19:20.716Z,100098.66
2023-01-15T01:21:48.560Z,100098.25
2023-01-15T01:24:17.573Z,100091.56
2023-01-15T01:26:45.936Z,100094.06
2023-01-15T01:29:14.848Z,100091.13
2023-01-15T01:31:42.448Z,100093.91
2023-01-15T01:34:10.340Z,100086.69
2023-01-15T01:36:39.187Z,100076.53
2023-01-15T01:39:06.882Z,100075.97
2023-01-15T01:41:34.418Z,100075.84
2023-01-15T01:44:02.995Z,100078.34
2023-01-15T01:46:31.905Z,100076.25
2023-01-15T01:49:08.293Z,100079.12
2023-01-15T01:51:38.645Z,100068.19
2023-01-15T01:54:06.081Z,100061.25
2023-01-15T01:56:34.456Z,100047.22
2023-01-15T01:59:02.098Z,100045.56
2023-01-15T02:01:29.573Z,100044.69
2023-01-15T02:03:57.283Z,100040.25
2023-01-15T02:06:24.647Z,100032.75
2023-01-15T02:08:52.885Z,100026.66
2023-01-15T02:11:22.008Z,100017.88
2023-01-15T02:14:12.856Z,100007.09
2023-01-15T02:17:04.015Z,100008.88
2023-01-15T02:20:10.841Z,99993.19
2023-01-15T02:22:43.612Z,100007.69
2023-01-15T02:25:24.857Z,100009.41
2023-01-15T02:27:55.486Z,99999.34
2023-01-15T02:30:34.435Z,100001.62
2023-01-15T02:33:11.654Z,100002.87
2023-01-15T02:35:50.476Z,99995.28
2023-01-15T02:38:20.467Z,99995.66
2023-01-15T02:40:48.836Z,99997.78
2023-01-15T02:43:19.672Z,100004.19
2023-01-15T02:45:48.981Z,100005.56
2023-01-15T02:48:19.346Z,99998.56
2023-01-15T02:50:50.300Z,99988.66
2023-01-15T02:53:20.461Z,99986.84
2023-01-15T02:55:49.820Z,99986.81
2023-01-15T02:58:21.783Z,99989.28
2023-01-15T03:00:49.790Z,99981.31
2023-01-15T03:03:22.076Z,99988.75
2023-01-15T03:05:54.554Z,99989.19
2023-01-15T03:08:21.969Z,99979.84
2023-01-15T03:10:58.465Z,99960.81
2023-01-15T03:13:34.867Z,99964.66
2023-01-15T03:16:23.656Z,99968.50
2023-01-15T03:19:18.312Z,99971.31
2023-01-15T03:22:13.068Z,99964.91
2023-01-15T03:24:46.475Z,99959.84
2023-01-15T03:27:15.724Z,99967.09
2023-01-15T03:29:46.026Z,99956.25
2023-01-15T03:32:14.779Z,99950.19
2023-01-15T03:34:44.329Z,99944.44
2023-01-15T03:37:12.625Z,99955.87
2023-01-15T03:39:41.530Z,99957.34
2023-01-15T03:42:37.394Z,99956.41
2023-01-15T03:45:18.228Z,99949.66
2023-01-15T03:48:17.579Z,99938.59
2023-01-15T03:50:52.387Z,99948.31
2023-01-15T03:53:25.936Z,99947.78
2023-01-15T03:56:01.769Z,99948.47
2023-01-15T03:58:35.994Z,99947.81
2023-01-15T04:01:09.790Z,99941.56
2023-01-15T04:03:37.625Z,99934.56
2023-01-15T04:06:05.431Z,99939.06
2023-01-15T04:08:36.054Z,99937.69
2023-01-15T04:11:03.768Z,99955.13
2023-01-15T04:13:31.673Z,99953.09
2023-01-15T04:15:59.771Z,99939.87
2023-01-15T04:18:27.797Z,99944.53
2023-01-15T04:20:55.730Z,99937.78
2023-01-15T04:23:23.512Z,99944.56
2023-01-15T04:25:51.126Z,99935.56
2023-01-15T04:28:18.550Z,99922.63
2023-01-15T04:30:46.441Z,99934.63
2023-01-15T04:33:14.206Z,99931.41
2023-01-15T04:35:41.561Z,99931.31
2023-01-15T04:38:08.906Z,99925.13
2023-01-15T04:40:55.132Z,99925.22
2023-01-15T04:43:41.087Z,99923.41
2023-01-15T04:46:08.883Z,99913.59
2023-01-15T04:48:36.225Z,99923.47
2023-01-15T04:51:04.490Z,99931.19
2023-01-15T04:53:32.201Z,99914.94
2023-01-15T04:56:03.935Z,99914.03
2023-01-15T04:58:31.812Z,99920.94
2023-01-15T05:01:00.925Z,99917.56
2023-01-15T05:03:28.997Z,99908.28
2023-01-15T05:06:00.718Z,99908.53
2023-01-15T05:08:28.332Z,99909.09
2023-01-15T05:10:55.702Z,99905.56
2023-01-15T05:13:23.310Z,99910.72
2023-01-15T05:15:50.693Z,99906.62
2023-01-15T05:18:18.127Z,99902.06
2023-01-15T05:20:45.800Z,99899.06
2023-01-15T05:23:13.892Z,99903.94
2023-01-15T05:25:41.216Z,99893.87
2023-01-15T05:28:08.943Z,99891.50
2023-01-15T05:30:36.316Z,99892.97
2023-01-15T05:33:03.637Z,99887.84
2023-01-15T05:35:31.358Z,99874.53
2023-01-15T05:37:58.684Z,99868.59
2023-01-15T05:40:26.061Z,99876.03
2023-01-15T05:42:53.780Z,99871.78
2023-01-15T05:45:21.161Z,99863.34
2023-01-15T05:47:48.512Z,99868.28
2023-01-15T05:50:16.705Z,99863.28
2023-01-15T05:52:44.221Z,99849.56
2023-01-15T05:55:11.544Z,99849.72
2023-01-15T05:57:39.152Z,99856.91
2023-01-15T06:00:07.288Z,99855.84
2023-01-15T06:02:40.088Z,99847.41
2023-01-15T06:05:08.029Z,99845.56
2023-01-15T06:07:35.386Z,99841.97
2023-01-15T06:10:02.787Z,99833.03
2023-01-15T06:12:30.410Z,99834.16
2023-01-15T06:14:57.738Z,99834.69
2023-01-15T06:17:25.083Z,99830.84
2023-01-15T06:19:52.697Z,99844.09
2023-01-15T06:22:20.044Z,99847.78
2023-01-15T06:24:47.490Z,99846.00
2023-01-15T06:27:15.245Z,99849.06
2023-01-15T06:29:42.607Z,99846.66
2023-01-15T06:32:09.926Z,99844.12
2023-01-15T06:34:37.555Z,99833.91
2023-01-15T06:37:04.931Z,99846.47
2023-01-15T06:39:32.284Z,99849.37
2023-01-15T06:42:18.893Z,99844.69
2023-01-15T06:45:04.882Z,99852.03
2023-01-15T06:47:32.517Z,99842.25
2023-01-15T06:49:59.912Z,99835.25
2023-01-15T06:52:27.966Z,99826.81
2023-01-15T06:54:55.850Z,99831.66
2023-01-15T06:57:23.216Z,99835.06
2023-01-15T06:59:50.692Z,99827.50
2023-01-15T07:02:18.633Z,99819.38
2023-01-15T07:04:46.927Z,99823.94
2023-01-15T07:07:15.951Z,99818.91
2023-01-15T07:09:43.631Z,99824.63
2023-01-15T07:12:11.105Z,99820.56
2023-01-15T07:14:38.529Z,99825.41
2023-01-15T07:17:06.204Z,99816.78
2023-01-15T07:19:33.548Z,99824.03
2023-01-15T07:22:00.860Z,99822.09
2023-01-15T07:24:28.545Z,99830.78
2023-01-15T07:26:55.913Z,99826.22
2023-01-15T07:29:23.457Z,99813.66
2023-01-15T07:31:51.180Z,99813.75
2023-01-15T07:34:18.577Z,99811.25
2023-01-15T07:36:45.934Z,99807.03
2023-01-15T07:39:13.685Z,99805.56
2023-01-15T07:41:59.568Z,99818.81
2023-01-15T07:44:46.281Z,99796.97
2023-01-15T07:47:36.124Z,99799.00
2023-01-15T07:50:03.886Z,99795.09
2023-01-15T07:52:31.245Z,99805.88
2023-01-15T07:54:58.748Z,99799.62
2023-01-15T07:57:26.377Z,99804.59
2023-01-15T07:59:53.746Z,99800.88
2023-01-15T08:02:21.099Z,99789.81
2023-01-15T08:04:48.840Z,99787.03
2023-01-15T08:07:16.202Z,99793.31
2023-01-15T08:09:43.505Z,99790.69
2023-01-15T08:12:30.309Z,99784.72
2023-01-15T08:15:16.779Z,99793.31
2023-01-15T08:17:45.640Z,99784.50
2023-01-15T08:20:20.966Z,99794.16
2023-01-15T08:22:48.592Z,99780.00
2023-01-15T08:25:17.913Z,99800.72
2023-01-15T08:27:45.373Z,99782.13
2023-01-15T08:30:15.267Z,99773.50
2023-01-15T08:32:42.643Z,99787.16
2023-01-15T08:35:10.226Z,99789.75
2023-01-15T08:37:37.869Z,99789.13
2023-01-15T08:40:05.895Z,99780.00
2023-01-15T08:42:33.440Z,99777.66
2023-01-15T08:45:01.178Z,99772.31
2023-01-15T08:47:28.575Z,99773.44
2023-01-15T08:49:56.007Z,99766.94
2023-01-15T08:52:23.754Z,99769.25
2023-01-15T08:54:51.165Z,99765.84
2023-01-15T08:57:18.831Z,99775.66
2023-01-15T08:59:47.652Z,99782.75
2023-01-15T09:02:15.414Z,99768.41
2023-01-15T09:04:42.974Z,99759.91
2023-01-15T09:07:11.277Z,99760.69
2023-01-15T09:09:38.710Z,99757.53
2023-01-15T09:12:06.479Z,99752.47
2023-01-15T09:14:59.355Z,99745.28
2023-01-15T09:17:21.423Z,99729.00
2023-01-15T09:19:49.102Z,99740.09
2023-01-15T09:22:16.467Z,99734.91
2023-01-15T09:24:43.962Z,99728.28
2023-01-15T09:27:12.140Z,99726.84
2023-01-15T09:29:39.493Z,99724.22
2023-01-15T09:32:08.144Z,99713.78
2023-01-15T09:34:35.803Z,99709.47
2023-01-15T09:37:03.145Z,99707.69
2023-01-15T09:39:30.513Z,99699.53
2023-01-15T09:42:08.629Z,99698.00
2023-01-15T09:44:35.935Z,99696.97
2023-01-15T09:47:08.668Z,99690.78
2023-01-15T09:49:56.169Z,99686.00
2023-01-15T09:52:36.738Z,99676.28
2023-01-15T09:55:13.046Z,99668.34
2023-01-15T09:57:40.639Z,99673.63
2023-01-15T10:00:08.517Z,99660.19
2023-01-15T10:02:59.131Z,99659.53
2023-01-15T10:05:30.503Z,99643.16
2023-01-15T10:07:59.215Z,99648.09
2023-01-15T10:10:54.717Z,99640.47
2023-01-15T10:13:48.118Z,99629.28
2023-01-15T10:16:23.298Z,99626.91
2023-01-15T10:18:51.168Z,99621.59
2023-01-15T10:21:30.913Z,99603.88
2023-01-15T10:24:33.263Z,99616.28
2023-01-15T10:27:01.248Z,99609.50
2023-01-15T10:29:54.952Z,99607.06
2023-01-15T10:33:06.595Z,99596.53
2023-01-15T10:36:03.300Z,99582.37
2023-01-15T10:38:32.618Z,99580.50
2023-01-15T10:41:09.160Z,99585.47
2023-01-15T10:43:48.078Z,99576.84
2023-01-15T10:46:20.569Z,99572.00
2023-01-15T10:49:00.150Z,99550.94
2023-01-15T10:51:34.565Z,99549.13
2023-01-15T10:54:25.172Z,99547.31
2023-01-15T10:57:08.174Z,99552.84
2023-01-15T10:59:59.466Z,99547.59
2023-01-15T11:02:38.202Z,99525.97
2023-01-15T11:05:06.123Z,99513.19
2023-01-15T11:07:39.118Z,99510.19
2023-01-15T11:10:15.897Z,99503.59
2023-01-15T11:13:12.830Z,99506.66
2023-01-15T11:15:59.665Z,99509.59
2023-01-15T11:18:46.592Z,99494.44
2023-01-15T11:21:16.719Z,99490.66
2023-01-15T11:23:44.177Z,99480.59
2023-01-15T11:26:21.224Z,99482.19
2023-01-15T11:28:48.893Z,99475.22
2023-01-15T11:31:16.556Z,99482.78
2023-01-15T11:33:58.176Z,99465.66
2023-01-15T11:36:26.965Z,99460.53
2023-01-15T11:38:54.392Z,99469.44
2023-01-15T11:42:01.987Z,99455.41
2023-01-15T11:44:48.559Z,99441.12
2023-01-15T11:47:36.498Z,99433.12
2023-01-15T11:50:35.997Z,99417.66
2023-01-15T11:53:03.440Z,99419.66
2023-01-15T11:55:31.058Z,99399.09
2023-01-15T11:57:58.420Z,99388.88
2023-01-15T12:00:30.830Z,99401.13
2023-01-15T12:03:01.435Z,99385.47
2023-01-15T12:05:31.789Z,99384.84
2023-01-15T12:08:01.907Z,99385.59
2023-01-15T12:10:54.754Z,99380.66
2023-01-15T12:13:50.385Z,99372.06
2023-01-15T12:16:52.854Z,99384.72
2023-01-15T12:19:37.571Z,99387.47
2023-01-15T12:22:10.174Z,99381.38
2023-01-15T12:24:40.358Z,99379.94
2023-01-15T12:27:10.466Z,99374.81
2023-01-15T12:29:42.992Z,99368.97
2023-01-15T12:32:12.703Z,99370.63
2023-01-15T12:34:53.105Z,99376.06
2023-01-15T12:37:23.955Z,99375.81
2023-01-15T12:39:54.652Z,99368.72
2023-01-15T12:42:41.275Z,99368.59
2023-01-15T12:45:23.349Z,99356.91
2023-01-15T12:48:11.183Z,99363.84
2023-01-15T12:50:45.067Z,99361.28
2023-01-15T12:53:29.909Z,99360.44
2023-01-15T12:56:17.661Z,99351.56
2023-01-15T12:58:47.882Z,99356.22
2023-01-15T13:01:21.547Z,99352.66
2023-01-15T13:04:07.266Z,99342.59
2023-01-15T13:06:35.296Z,99350.06
2023-01-15T13:09:10.909Z,99344.63
2023-01-15T13:11:38.599Z,99348.53
2023-01-15T13:14:16.376Z,99353.66
2023-01-15T13:17:01.820Z,99358.69
2023-01-15T13:19:41.078Z,99347.78
2023-01-15T13:22:15.629Z,99335.16
2023-01-15T13:24:58.126Z,99334.66
2023-01-15T13:27:34.631Z,99332.47
2023-01-15T13:30:24.590Z,99322.84
2023-01-15T13:32:53.797Z,99313.84
2023-01-15T13:35:45.866Z,99314.81
2023-01-15T13:38:19.084Z,99310.59
2023-01-15T13:40:52.024Z,99308.56
2023-01-15T13:43:28.493Z,99309.63
2023-01-15T13:45:55.941Z,99303.97
2023-01-15T13:48:36.340Z,99308.53
2023-01-15T13:51:05.114Z,99310.44
2023-01-15T13:53:33.512Z,99300.69
2023-01-15T13:56:09.549Z,99299.41
2023-01-15T13:58:59.757Z,99295.09
2023-01-15T14:01:30.162Z,99299.00
2023-01-15T14:04:05.028Z,99298.88
2023-01-15T14:06:51.912Z,99301.50
2023-01-15T14:09:22.819Z,99292.47
2023-01-15T14:12:38.306Z,99297.81
2023-01-15T14:15:17.795Z,99292.59
2023-01-15T14:18:23.307Z,99295.38
2023-01-15T14:20:55.335Z,99295.16
2023-01-15T14:23:53.436Z,99301.53
2023-01-15T14:26:43.825Z,99297.59
2023-01-15T14:29:38.666Z,99295.66
2023-01-15T14:32:27.628Z,99293.34
2023-01-15T14:35:01.451Z,99291.44
2023-01-15T14:37:59.452Z,99279.41
2023-01-15T14:40:31.139Z,99279.53
2023-01-15T14:43:07.067Z,99271.28
2023-01-15T14:45:41.814Z,99284.75
2023-01-15T14:48:28.830Z,99277.16
2023-01-15T14:51:15.781Z,99281.19
2023-01-15T14:53:45.289Z,99269.34
2023-01-15T14:56:24.853Z,99272.66
2023-01-15T14:59:18.471Z,99271.78
2023-01-15T15:01:50.522Z,99276.75
2023-01-15T15:04:36.519Z,99271.25
2023-01-15T15:07:07.732Z,99270.63
2023-01-15T15:09:40.000Z,99268.94
2023-01-15T15:12:28.891Z,99274.38
2023-01-15T15:15:19.444Z,99264.28
2023-01-15T15:18:02.999Z,99251.38
2023-01-15T15:20:42.312Z,99251.50
2023-01-15T15:23:40.221Z,99241.59
2023-01-15T15:26:30.284Z,99253.97
2023-01-15T15:29:13.824Z,99242.22
2023-01-15T15:31:44.953Z,99242.81
2023-01-15T15:34:36.283Z,99236.75
2023-01-15T15:37:05.560Z,99234.91
2023-01-15T15:39:42.584Z,99236.66
2023-01-15T15:42:44.364Z,99228.84
2023-01-15T15:45:42.748Z,99231.50
2023-01-15T15:48:53.052Z,99241.53
2023-01-15T15:51:33.450Z,99234.62
2023-01-15T15:54:13.230Z,99237.41
2023-01-15T15:56:48.783Z,99232.06
2023-01-15T15:59:33.797Z,99233.78
2023-01-15T16:02:16.717Z,99233.63
2023-01-15T16:04:54.807Z,99232.38
2023-01-15T16:07:29.717Z,99227.28
2023-01-15T16:09:59.296Z,99229.13
2023-01-15T16:12:28.912Z,99227.28
2023-01-15T16:14:56.583Z,99228.44
2023-01-15T16:17:25.307Z,99234.62
2023-01-15T16:19:55.786Z,99221.47
2023-01-15T16:22:23.398Z,99228.31
2023-01-15T16:24:57.587Z,99224.22
2023-01-15T16:27:28.326Z,99229.59
2023-01-15T16:29:55.698Z,99234.50
2023-01-15T16:32:28.791Z,99236.34
2023-01-15T16:35:20.235Z,99230.25
2023-01-15T16:37:51.397Z,99231.16
2023-01-15T16:40:27.982Z,99232.06
2023-01-15T16:43:07.364Z,99240.22
2023-01-15T16:45:35.400Z,99234.44
2023-01-15T16:48:08.697Z,99233.13
2023-01-15T16:50:39.753Z,99229.44
2023-01-15T16:53:07.241Z,99228.44
2023-01-15T16:55:34.646Z,99223.59
2023-01-15T16:58:33.060Z,99223.13
2023-01-15T17:01:33.377Z,99217.53
2023-01-15T17:04:02.237Z,99226.38
2023-01-15T17:06:29.669Z,99223.44
2023-01-15T17:08:57.617Z,99223.25
2023-01-15T17:11:30.086Z,99214.06
2023-01-15T17:14:23.338Z,99219.22
2023-01-15T17:17:22.935Z,99209.28
2023-01-15T17:19:50.883Z,99214.88
2023-01-15T17:22:24.731Z,99208.13
2023-01-15T17:25:01.339Z,99212.50
2023-01-15T17:27:29.763Z,99205.47
2023-01-15T17:29:57.203Z,99215.59
2023-01-15T17:32:30.502Z,99205.31
2023-01-15T17:34:58.181Z,99206.97
2023-01-15T17:37:25.532Z,99210.47
2023-01-15T17:39:52.905Z,99199.19
2023-01-15T17:42:20.550Z,99210.09
2023-01-15T17:44:47.904Z,99202.75
2023-01-15T17:47:15.993Z,99201.56
2023-01-15T17:49:43.662Z,99208.53
2023-01-15T17:52:16.839Z,99209.94
2023-01-15T17:55:03.068Z,99202.41
2023-01-15T17:57:49.005Z,99205.97
2023-01-15T18:00:36.358Z,99208.09
2023-01-15T18:03:22.756Z,99206.81
2023-01-15T18:05:51.101Z,99203.50
2023-01-15T18:08:18.855Z,99202.41
2023-01-15T18:10:46.359Z,99209.37
2023-01-15T18:13:13.706Z,99200.63
2023-01-15T18:15:41.424Z,99203.41
2023-01-15T18:18:09.818Z,99202.00
2023-01-15T18:20:37.152Z,99198.16
2023-01-15T18:23:04.755Z,99209.75
2023-01-15T18:25:32.253Z,99205.78
2023-01-15T18:27:59.583Z,99214.78
2023-01-15T18:30:27.183Z,99218.34
2023-01-15T18:32:54.640Z,99219.81
2023-01-15T18:35:23.310Z,99222.84
2023-01-15T18:37:50.892Z,99213.38
2023-01-15T18:40:19.012Z,99217.53
2023-01-15T18:43:05.000Z,99220.66
2023-01-15T18:45:58.993Z,99224.88
2023-01-15T18:48:26.434Z,99214.09
2023-01-15T18:50:55.796Z,99212.84
2023-01-15T18:53:23.320Z,99218.69
2023-01-15T18:55:50.763Z,99230.19
2023-01-15T18:58:18.383Z,99223.72
2023-01-15T19:00:45.779Z,99226.66
2023-01-15T19:03:13.140Z,99220.72
2023-01-15T19:05:40.736Z,99226.03
2023-01-15T19:08:08.376Z,99232.34
2023-01-15T19:10:35.721Z,99227.69
2023-01-15T19:13:05.471Z,99233.31
2023-01-15T19:15:51.685Z,99230.75
2023-01-15T19:18:38.129Z,99226.47
2023-01-15T19:21:10.236Z,99224.84
2023-01-15T19:23:37.867Z,99230.50
2023-01-15T19:26:05.471Z,99231.00
2023-01-15T19:28:33.431Z,99248.94
2023-01-15T19:31:19.828Z,99253.87
2023-01-15T19:33:47.282Z,99244.09
2023-01-15T19:36:15.326Z,99241.81
2023-01-15T19:38:42.729Z,99237.25
2023-01-15T19:41:30.407Z,99225.34
2023-01-15T19:44:16.979Z,99227.56
2023-01-15T19:47:02.837Z,99220.00
2023-01-15T19:49:53.034Z,99217.81
2023-01-15T19:52:35.708Z,99217.16
2023-01-15T19:55:10.559Z,99214.88
2023-01-15T19:57:38.379Z,99218.13
2023-01-15T20:00:06.632Z,99218.59
2023-01-15T20:02:34.815Z,99222.22
2023-01-15T20:05:02.709Z,99226.47
2023-01-15T20:07:30.501Z,99216.47
2023-01-15T20:09:58.385Z,99226.34
2023-01-15T20:12:44.823Z,99226.16
2023-01-15T20:15:12.512Z,99232.69
2023-01-15T20:17:39.928Z,99220.66
2023-01-15T20:20:08.178Z,99222.63
2023-01-15T20:22:35.936Z,99217.19
2023-01-15T20:25:03.589Z,99212.00
2023-01-15T20:27:36.090Z,99220.50
2023-01-15T20:30:08.439Z,99235.00
2023-01-15T20:32:41.009Z,99235.59
2023-01-15T20:35:11.182Z,99233.06
2023-01-15T20:37:38.561Z,99239.09
2023-01-15T20:40:06.651Z,99234.22
2023-01-15T20:42:53.585Z,99226.34
2023-01-15T20:45:21.169Z,99241.72
2023-01-15T20:48:07.616Z,99235.09
2023-01-15T20:50:36.411Z,99232.97
2023-01-15T20:53:05.182Z,99242.91
2023-01-15T20:55:55.935Z,99236.72
2023-01-15T20:58:25.005Z,99232.66
2023-01-15T21:00:53.362Z,99232.41
2023-01-15T21:03:20.838Z,99236.88
2023-01-15T21:05:48.568Z,99235.03
2023-01-15T21:08:15.952Z,99226.97
2023-01-15T21:10:43.587Z,99235.34
2023-01-15T21:13:12.977Z,99227.91
2023-01-15T21:15:40.852Z,99214.72
2023-01-15T21:18:09.185Z,99213.50
2023-01-15T21:20:36.785Z,99205.63
2023-01-15T21:23:04.147Z,99212.38
2023-01-15T21:25:31.545Z,99214.72
2023-01-15T21:27:59.204Z,99216.44
2023-01-15T21:30:26.535Z,99224.03
2023-01-15T21:32:54.017Z,99218.63
2023-01-15T21:35:21.780Z,99216.16
2023-01-15T21:37:49.128Z,99223.50
2023-01-15T21:40:16.673Z,99217.91
2023-01-15T21:43:03.252Z,99210.66
2023-01-15T21:45:30.773Z,99201.16
2023-01-15T21:47:58.394Z,99189.16
2023-01-15T21:50:25.727Z,99188.69
2023-01-15T21:52:53.096Z,99202.81
2023-01-15T21:55:20.751Z,99188.75
2023-01-15T21:57:49.209Z,99193.53
2023-01-15T22:00:19.857Z,99192.94
2023-01-15T22:02:48.034Z,99203.72
2023-01-15T22:05:15.748Z,99204.34
2023-01-15T22:07:43.093Z,99201.53
2023-01-15T22:10:11.046Z,99197.47
2023-01-15T22:12:42.964Z,99192.81
2023-01-15T22:15:12.223Z,99193.41
2023-01-15T22:17:39.618Z,99182.50
2023-01-15T22:20:08.366Z,99180.38
2023-01-15T22:22:38.811Z,99182.28
2023-01-15T22:25:08.667Z,99181.47
2023-01-15T22:27:40.689Z,99181.50
2023-01-15T22:30:12.280Z,99195.13
2023-01-15T22:32:39.884Z,99203.19
2023-01-15T22:35:08.367Z,99196.28
2023-01-15T22:37:35.718Z,99202.19
2023-01-15T22:40:04.531Z,99201.13
2023-01-15T22:42:32.959Z,99199.25
2023-01-15T22:45:00.853Z,99201.06
2023-01-15T22:47:28.824Z,99204.31
2023-01-15T22:49:56.255Z,99201.28
2023-01-15T22:52:25.600Z,99207.59
2023-01-15T22:54:53.536Z,99215.66
2023-01-15T22:57:21.205Z,99215.37
2023-01-15T22:59:50.398Z,99223.59
2023-01-15T23:02:38.289Z,99216.56
2023-01-15T23:05:06.577Z,99213.09
2023-01-15T23:07:36.434Z,99204.50
2023-01-15T23:10:05.204Z,99201.66
2023-01-15T23:12:32.612Z,99203.81
2023-01-15T23:15:00.420Z,99197.28
2023-01-15T23:17:27.776Z,99192.47
2023-01-15T23:19:55.263Z,99177.59
2023-01-15T23:22:22.880Z,99174.66
2023-01-15T23:24:50.234Z,99152.72
2023-01-15T23:27:17.579Z,99139.44
2023-01-15T23:29:45.233Z,99144.56
2023-01-15T23:32:12.592Z,99165.16
2023-01-15T23:34:39.966Z,99189.88
2023-01-15T23:37:07.728Z,99191.56
2023-01-15T23:39:35.148Z,99179.75
2023-01-15T23:42:21.124Z,99179.97
2023-01-15T23:45:07.682Z,99174.56
2023-01-15T23:47:34.985Z,99160.97
2023-01-15T23:50:03.447Z,99171.56
2023-01-15T23:52:31.021Z,99165.09
2023-01-15T23:54:58.363Z,99162.81
2023-01-15T23:57:26.022Z,99155.31
2023-01-15T23:59:53.339Z,99156.13
